Latest Weather Observations for Winton

IDQ60801

Issued at 1:32 pm EST Tuesday 30 June 2015 (issued every 30 minutes, with the page automatically refreshed every 10 minutes)

About weather observations | Map of weather stations | Latest weather observations for QLD | Other Formats
Station Details ID: 037039 Name: WINTON AIRPORT Lat: -22.36 Lon: 143.08 Height: 192.2 m
Data from the previous 72 hours. | See also: Recent months at Winton
Date/Time
EST
Temp
°C
App
Temp
°C
Dew
Point
Rel
Hum
%
Delta-T
°C
Wind Press
QNH
hPa
Press
MSL
hPa
Rain
since 9 am
mm
Dir
 
Spd
km/h
Gust
km/h
Spd
kts
Gust
kts
30/01:30pm 23.2 20.6 15.0 60 4.9 NE 22 30 12 16 1022.4 1022.0 0.2
30/01:00pm 22.6 19.6 14.7 61 4.7 NE 24 30 13 16 1022.7 1022.3 0.2
30/12:30pm 22.5 19.2 14.9 62 4.5 NE 26 35 14 19 1023.0 1022.6 0.0
30/12:00pm 22.4 19.7 15.5 65 4.1 NE 24 32 13 17 1023.6 1023.3 0.0
30/11:30am 21.3 18.5 15.4 69 3.5 NE 24 33 13 18 1023.9 1023.6 0.0
30/11:00am 20.4 17.0 14.7 70 3.3 NE 26 33 14 18 1024.2 1023.9 0.0
30/10:30am 20.4 17.0 14.7 70 3.4 ENE 26 33 14 18 1024.3 1024.0 0.0
30/10:00am 20.1 16.8 14.9 72 3.1 ENE 26 32 14 17 1024.2 1023.9 0.0
30/09:30am 19.7 17.0 15.6 77 2.4 ENE 24 33 13 18 1024.1 1023.8 0.0
30/09:00am 19.1 17.9 16.0 82 1.9 E 17 22 9 12 1024.1 1023.8 1.0
30/08:30am 18.7 17.8 15.8 83 1.7 E 15 20 8 11 1023.9 1023.6 1.0
30/08:00am 18.1 17.1 15.7 86 1.4 E 15 20 8 11 1023.5 1023.2 1.0
30/07:30am 17.7 16.2 15.3 86 1.4 E 17 24 9 13 1023.0 1022.6 1.0
30/07:00am 17.5 16.5 15.5 88 1.2 ESE 15 20 8 11 1022.6 1022.2 1.0
30/06:30am 17.4 14.7 15.6 89 1.1 E 24 33 13 18 1021.9 1021.5 1.0
30/06:00am 17.7 16.4 15.7 88 1.2 ESE 17 22 9 12 1022.5 1022.1 1.0
30/05:30am 17.7 17.0 15.5 87 1.3 ESE 13 17 7 9 1022.3 1021.9 1.0
30/05:00am 17.9 16.4 15.2 84 1.6 ESE 17 20 9 11 1022.1 1021.7 1.0
30/04:30am 18.4 17.4 15.5 83 1.7 ESE 15 20 8 11 1022.1 1021.7 1.0
30/04:00am 18.5 18.2 15.4 82 1.8 ESE 11 15 6 8 1022.1 1021.7 1.0
30/03:30am 18.9 19.1 14.2 74 2.7 SE 6 9 3 5 1021.9 1021.5 0.4
30/03:00am 19.8 19.2 13.5 67 3.6 SSE 9 15 5 8 1021.5 1021.1 0.0
30/02:30am 19.5 19.0 13.7 69 3.4 SSE 9 13 5 7 1021.7 1021.3 0.0
30/02:00am 21.0 20.7 11.6 55 5.3 SE 4 6 2 3 1021.9 1021.5 0.0
30/01:30am 21.4 20.2 10.3 49 6.1 ESE 7 11 4 6 1021.6 1021.2 0.0
30/01:00am 21.9 19.7 10.7 49 6.2 ESE 13 19 7 10 1021.1 1020.8 0.0
30/12:30am 21.9 20.0 10.4 48 6.3 ESE 11 15 6 8 1021.1 1020.8 0.0
30/12:00am 21.8 19.8 10.0 47 6.4 SE 11 15 6 8 1021.2 1020.9 0.0
 
Date/Time
EST
Temp
°C
App
Temp
°C
Dew
Point
Rel
Hum
%
Delta-T
°C
Wind Press
QNH
hPa
Press
MSL
hPa
Rain
since 9 am
mm
Dir
 
Spd
km/h
Gust
km/h
Spd
kts
Gust
kts
29/11:30pm 21.8 19.7 9.7 46 6.6 SE 11 15 6 8 1021.5 1021.1 0.0
29/11:00pm 22.1 19.7 9.9 46 6.6 ESE 13 17 7 9 1021.5 1021.1 0.0
29/10:30pm 22.1 19.7 9.9 46 6.7 ESE 13 17 7 9 1021.5 1021.1 0.0
29/10:00pm 22.4 19.2 9.9 45 6.8 ESE 17 20 9 11 1021.5 1021.1 0.0
29/09:30pm 22.4 20.0 9.9 45 6.8 ESE 13 19 7 10 1021.5 1021.1 0.0
29/09:00pm 22.5 20.1 10.0 45 6.8 ESE 13 17 7 9 1021.3 1021.0 0.0
29/08:30pm 22.8 20.4 9.9 44 7.1 ESE 13 15 7 8 1021.3 1021.0 0.0
29/08:00pm 22.9 20.8 9.7 43 7.2 ESE 11 15 6 8 1021.2 1020.9 0.0
29/07:30pm 23.3 20.9 10.0 43 7.3 E 13 17 7 9 1020.8 1020.5 0.0
29/07:00pm 23.6 21.2 9.9 42 7.5 E 13 15 7 8 1020.6 1020.3 0.0
29/06:30pm 24.2 21.4 10.1 41 7.8 ESE 15 19 8 10 1020.2 1019.9 0.0
29/06:00pm 25.0 21.4 10.5 40 8.1 ESE 20 28 11 15 1019.9 1019.6 0.0
29/05:30pm 25.8 21.1 10.8 39 8.5 E 26 33 14 18 1019.6 1019.3 0.0
29/05:00pm 26.3 21.7 11.2 38 8.6 ESE 26 37 14 20 1019.5 1019.2 0.0
29/04:30pm 26.6 23.3 11.5 39 8.7 ESE 20 28 11 15 1019.5 1019.2 0.0
29/04:00pm 26.5 23.1 11.4 39 8.6 E 20 32 11 17 1019.6 1019.3 0.0
29/03:30pm 26.7 22.9 11.2 38 8.9 E 22 32 12 17 1019.7 1019.4 0.0
29/03:00pm 26.9 23.4 11.0 37 9.1 E 20 28 11 15 1019.7 1019.4 0.0
29/02:30pm 27.2 23.4 11.3 37 9.1 E 22 32 12 17 1020.0 1019.7 0.0
29/02:00pm 26.7 22.1 11.2 38 8.8 E 26 37 14 20 1020.1 1019.8 0.0
29/01:30pm 25.9 21.6 10.9 39 8.5 ENE 24 33 13 18 1020.8 1020.5 0.0
29/01:00pm 25.7 20.6 10.7 39 8.4 E 28 37 15 20 1021.6 1021.2 0.0
29/12:30pm 25.2 19.7 10.6 40 8.2 E 30 39 16 21 1022.3 1021.9 0.0
29/12:00pm 24.7 20.0 12.0 45 7.3 E 28 39 15 21 1022.8 1022.4 0.0
29/11:30am 23.1 18.3 11.5 48 6.6 E 28 35 15 19 1023.5 1023.2 0.0
29/11:00am 22.8 17.6 11.5 49 6.4 E 30 41 16 22 1023.9 1023.6 0.0
29/10:30am 22.1 16.5 11.5 51 6.0 E 32 43 17 23 1024.1 1023.8 0.0
29/10:00am 21.4 16.2 11.7 54 5.4 E 30 39 16 21 1024.3 1024.0 0.0
29/09:30am 21.1 15.6 12.3 57 5.0 E 33 41 18 22 1024.4 1024.1 0.0
29/09:00am 20.0 15.5 12.5 62 4.2 E 28 39 15 21 1024.4 1024.1 0.0
29/08:30am 19.0 15.6 12.5 66 3.7 E 22 35 12 19 1024.3 1024.0 0.0
29/08:00am 17.6 15.0 12.1 70 3.0 E 17 20 9 11 1024.1 1023.8 0.0
29/07:30am 16.7 14.3 11.4 71 2.9 E 15 19 8 10 1023.7 1023.4 0.0
29/07:00am 17.0 13.9 11.7 71 2.9 E 19 24 10 13 1023.3 1023.0 0.0
29/06:30am 17.4 14.1 11.7 69 3.1 E 20 28 11 15 1022.9 1022.5 0.0
29/06:00am 17.7 13.7 11.9 69 3.2 E 24 30 13 16 1022.7 1022.3 0.0
29/05:30am 16.8 13.4 10.6 67 3.3 E 19 26 10 14 1022.6 1022.2 0.0
29/05:00am 16.2 12.5 9.4 64 3.5 E 19 22 10 12 1022.5 1022.1 0.0
29/04:30am 17.1 12.9 9.8 62 3.9 E 22 30 12 16 1022.6 1022.2 0.0
29/04:00am 16.8 13.0 9.2 61 4.0 E 19 24 10 13 1022.7 1022.3 0.0
29/03:30am 16.7 12.9 9.1 61 4.0 ESE 19 22 10 12 1022.8 1022.4 0.0
29/03:00am 16.6 13.9 8.8 60 4.0 ESE 13 17 7 9 1022.9 1022.5 0.0
29/02:30am 17.1 13.6 8.8 58 4.3 ESE 17 20 9 11 1023.0 1022.6 0.0
29/02:00am 17.5 13.7 8.9 57 4.5 ESE 19 24 10 13 1023.0 1022.6 0.0
29/01:30am 17.3 14.6 9.0 58 4.3 ESE 13 17 7 9 1023.1 1022.8 0.0
29/01:00am 17.0 14.2 8.4 57 4.4 ESE 13 15 7 8 1023.1 1022.8 0.0
29/12:30am 17.1 14.2 8.0 55 4.7 ESE 13 15 7 8 1023.3 1023.0 0.0
29/12:00am 18.1 14.9 8.4 53 5.0 SE 15 17 8 9 1023.5 1023.2 0.0
 
Date/Time
EST
Temp
°C
App
Temp
°C
Dew
Point
Rel
Hum
%
Delta-T
°C
Wind Press
QNH
hPa
Press
MSL
hPa
Rain
since 9 am
mm
Dir
 
Spd
km/h
Gust
km/h
Spd
kts
Gust
kts
28/11:30pm 18.3 15.4 8.3 52 5.2 SE 13 15 7 8 1023.8 1023.5 0.0
28/11:00pm 18.9 15.7 8.3 50 5.5 SE 15 19 8 10 1023.8 1023.5 0.0
28/10:30pm 19.5 15.6 8.8 50 5.6 SE 19 24 10 13 1023.9 1023.6 0.0
28/10:00pm 18.6 15.6 7.7 49 5.6 SE 13 15 7 8 1023.8 1023.5 0.0
28/09:30pm 19.1 16.1 7.5 47 6.0 SE 13 17 7 9 1023.9 1023.6 0.0
28/09:00pm 20.3 16.7 8.3 46 6.3 SE 17 19 9 10 1023.9 1023.6 0.0
28/08:30pm 20.1 17.6 8.1 46 6.3 SE 11 13 6 7 1023.8 1023.5 0.0
28/08:00pm 20.2 17.6 7.6 44 6.5 SE 11 13 6 7 1023.6 1023.3 0.0
28/07:30pm 21.2 18.6 7.8 42 7.0 SE 11 13 6 7 1023.4 1023.1 0.0
28/07:00pm 21.4 19.0 6.9 39 7.4 SE 9 11 5 6 1023.0 1022.6 0.0
28/06:30pm 22.8 20.0 7.0 36 8.2 SE 11 15 6 8 1022.7 1022.3 0.0
28/06:00pm 24.3 21.2 7.4 34 8.9 ESE 13 19 7 10 1022.3 1021.9 0.0
28/05:30pm 25.4 21.1 8.0 33 9.4 ESE 20 28 11 15 1022.0 1021.6 0.0
28/05:00pm 26.0 21.5 8.5 33 9.5 ESE 22 32 12 17 1021.7 1021.3 0.0
28/04:30pm 26.4 22.2 8.4 32 9.8 ESE 20 30 11 16 1021.6 1021.2 0.0
28/04:00pm 26.4 22.2 8.4 32 9.8 ESE 20 30 11 16 1021.5 1021.1 0.0
28/03:30pm 26.6 22.3 9.5 34 9.5 E 22 32 12 17 1021.7 1021.3 0.0
28/03:00pm 26.6 22.2 9.0 33 9.7 ESE 22 32 12 17 1021.8 1021.4 0.0
28/02:30pm 26.1 22.1 9.0 34 9.4 ESE 20 33 11 18 1022.0 1021.6 0.0
28/02:00pm 26.0 21.3 9.4 35 9.2 ESE 24 33 13 18 1022.4 1022.0 0.0
28/01:30pm 26.3 22.0 9.2 34 9.4 E 22 33 12 18 1022.9 1022.5 0.0
28/01:00pm 25.8 21.4 10.4 38 8.6 E 24 33 13 18 1023.4 1023.1 0.0
28/12:30pm 24.6 19.9 10.5 41 7.9 ESE 26 37 14 20 1023.9 1023.6 0.0
28/12:00pm 24.8 19.9 11.4 43 7.6 E 28 37 15 20 1024.4 1024.1 0.0
28/11:30am 24.3 18.8 11.9 45 7.1 E 32 43 17 23 1024.8 1024.5 0.0
28/11:00am 23.4 17.9 11.8 48 6.6 E 32 43 17 23 1025.2 1024.9 0.0
28/10:30am 23.1 17.7 12.1 50 6.3 E 32 43 17 23 1025.7 1025.4 0.0
28/10:00am 21.8 16.2 12.1 54 5.5 E 33 41 18 22 1026.0 1025.7 0.0
28/09:30am 19.9 15.7 11.1 57 4.9 E 24 30 13 16 1026.2 1025.9 0.0
28/09:00am 18.2 15.6 10.6 61 4.1 ESE 15 20 8 11 1026.1 1025.8 0.0
28/08:30am 16.3 12.6 9.5 64 3.6 ESE 19 24 10 13 1025.8 1025.5 0.0
28/08:00am 14.9 11.0 8.8 67 3.1 ESE 19 22 10 12 1025.6 1025.3 0.0
28/07:30am 14.2 11.1 8.8 70 2.8 ESE 15 20 8 11 1025.2 1024.9 0.0
28/07:00am 14.1 10.5 8.5 69 2.8 ESE 17 22 9 12 1024.9 1024.6 0.0
28/06:30am 14.3 10.4 8.5 68 2.9 ESE 19 24 10 13 1024.7 1024.4 0.0
28/06:00am 14.5 10.6 8.5 67 3.0 ESE 19 24 10 13 1024.3 1024.0 0.0
28/05:30am 14.6 11.0 8.3 66 3.2 ESE 17 24 9 13 1024.0 1023.7 0.0
28/05:00am 14.5 10.8 8.0 65 3.3 ESE 17 20 9 11 1023.9 1023.6 0.0
28/04:30am 14.6 10.8 7.6 63 3.5 ESE 17 22 9 12 1023.7 1023.4 0.0
28/04:00am 15.1 10.8 7.9 62 3.6 ESE 20 24 11 13 1023.7 1023.4 0.0
28/03:30am 15.6 11.5 7.9 60 3.9 ESE 19 22 10 12 1023.5 1023.2 0.0
28/03:00am 15.8 11.6 8.1 60 3.9 ESE 20 24 11 13 1023.4 1023.1 0.0
28/02:30am 15.7 11.6 7.7 59 4.0 SE 19 22 10 12 1023.4 1023.1 0.0
28/02:00am 15.9 11.6 7.7 58 4.1 ESE 20 26 11 14 1023.5 1023.2 0.0
28/01:30am 15.8 11.9 7.3 57 4.3 ESE 17 20 9 11 1023.9 1023.6 0.0
28/01:00am 16.1 11.9 7.3 56 4.4 SE 19 20 10 11 1023.9 1023.6 0.0
28/12:30am 16.4 12.5 7.3 55 4.6 SE 17 20 9 11 1023.8 1023.5 0.0
28/12:00am 16.6 12.7 7.3 54 4.7 SE 17 20 9 11 1023.9 1023.6 0.0
 
Date/Time
EST
Temp
°C
App
Temp
°C
Dew
Point
Rel
Hum
%
Delta-T
°C
Wind Press
QNH
hPa
Press
MSL
hPa
Rain
since 9 am
mm
Dir
 
Spd
km/h
Gust
km/h
Spd
kts
Gust
kts
27/11:30pm 16.9 13.9 7.5 54 4.8 SE 13 17 7 9 1024.0 1023.7 0.0
27/11:00pm 16.9 13.5 7.5 54 4.7 SE 15 17 8 9 1024.2 1023.9 0.0
27/10:30pm 16.9 13.4 7.0 52 5.0 SE 15 19 8 10 1024.2 1023.9 0.0
27/10:00pm 17.6 14.1 7.1 50 5.3 ESE 15 19 8 10 1024.6 1024.3 0.0
27/09:30pm 17.8 15.0 7.0 49 5.4 ESE 11 13 6 7 1024.6 1024.3 0.0
27/09:00pm 18.0 15.2 6.8 48 5.6 ESE 11 13 6 7 1024.6 1024.3 0.0
27/08:30pm 19.0 15.9 7.4 47 5.9 SE 13 15 7 8 1024.4 1024.1 0.0
27/08:00pm 18.9 16.0 6.7 45 6.1 SE 11 13 6 7 1024.1 1023.8 0.0
27/07:30pm 19.6 17.2 7.0 44 6.4 SE 9 13 5 7 1023.8 1023.5 0.0
27/07:00pm 20.9 17.8 7.2 41 7.0 SE 13 15 7 8 1023.5 1023.2 0.0
27/06:30pm 21.9 18.4 7.3 39 7.6 ESE 15 19 8 10 1023.2 1022.9 0.0
27/06:00pm 23.1 18.7 7.6 37 8.1 ESE 20 26 11 14 1022.7 1022.3 0.0
27/05:30pm 24.0 18.5 7.6 35 8.7 ESE 26 32 14 17 1022.2 1021.8 0.0
27/05:00pm 24.6 19.2 8.1 35 8.8 E 26 35 14 19 1021.9 1021.5 0.0
27/04:30pm 25.3 20.7 8.3 34 9.2 ESE 22 30 12 16 1021.9 1021.5 0.0
27/04:00pm 25.3 20.3 7.9 33 9.3 ESE 24 37 13 20 1021.7 1021.3 0.0
27/03:30pm 25.7 20.3 7.8 32 9.6 ESE 26 33 14 18 1021.7 1021.3 0.0
27/03:00pm 25.3 20.4 7.0 31 9.6 E 22 32 12 17 1021.9 1021.5 0.0
27/02:30pm 24.8 19.9 7.0 32 9.4 ESE 22 32 12 17 1022.2 1021.8 0.0
27/02:00pm 24.6 20.3 7.7 34 9.0 ESE 20 28 11 15 1022.6 1022.2 0.0

Other Formats:

Comma delimited format used in spreadsheet applications
http://www.bom.gov.au/fwo/IDQ60801/IDQ60801.94342.axf

JavaScript Object Notation format (JSON) in row-major order
http://www.bom.gov.au/fwo/IDQ60801/IDQ60801.94342.json